Terminal Aerodrome Forecast
Issued by NWS

Home | Current Version | Previous Version | Graphics & Text | Print | Product List | Glossary On
Versions: 1 2 3 4 5 6 7 8 9 10 11 12 13 14 15 16 17
000
FTUS43 KGRB 251100
TAFATW
TAF
KATW 251139Z 2512/2612 23009KT P6SM OVC025
     FM251400 22008KT P6SM OVC018
     FM252300 19005KT P6SM SCT025 BKN120
     FM260800 20003KT 6SM BR BKN012 BKN025=

USA.gov is the U.S. government's official web portal to all federal, state and local government web resources and services.